Angler Guide Weather for Prince George -
Prince George, British Columbia Current Weather Conditions
Enter your "Place, State", US Zip Code or ICAO:  
Forecast Information Radar Information
Prince George, British Columbia, Canada  Lat: 53.90N, Lon: 122.78W
ICAO Used: CYQZ
Current Conditions
Updated:
Sun & Moon Information:
Temp: N/A
Humidity: N/A
Wind Speed: N/A
Barometer: N/A
Dewpoint: N/A
Heat Index: N/A
Wind Chill: N/A
Civil Twilight: 7:34 AM PST
Moonrise: 12:51 AM PST Moon Phase:
Waning Crescent Moon
Waning Crescent Moon
Moonset: 1:27 PM PST
Sunrise: 8:18 AM PST
Sunset: 3:48 PM PST
Civil Twilight: 4:31 PM PST
Forecast for Prince George, BC:
(Forecast based on TAF for )
0144 PM PST MON NOV 06 2006
  
AFTERNOONEVENINGOVERNIGHT
MISTMISTMIST
MistMistMist
TAF based forecast:
Dated: 0144 PM PST MON NOV 06 2006
Afternoon...Partly cloudy with mist with winds variable at 3 mph. Possible periods of mist.
Evening...Partly cloudy with mist with winds variable at 3 mph.
Overnight...Partly cloudy with mist with winds variable at 3 mph.
Original Encoded TAF:
Dated: 0144 PM PST MON NOV 06 2006
2006/11/06 21:44
CYQZ 062144Z 062106 VRB03KT 1SM BR FEW003 SCT070 TEMPO 2122 6SM BR=




Powered by Angler Guide.com
Copyright 2007, all rights reserved.